Time;durP1;ratioP1;P1;durP2;ratioP2;P2;SDS_P1;SDS_P2;PMS_P1;PMS_P2;Temp;Humidity;BMP_temperature;BMP_pressure;BME280_temperature;BME280_humidity;BME280_pressure;Samples;Min_cycle;Max_cycle;Signal;HPM_P1;HPM_P2
2024/02/19 00:02:26;;;;;;;;;;;15.10;87.00;;;;;;4089516;28;19934;-48
2024/02/19 00:05:09;;;;;;;;;;;15.10;87.30;;;;;;4077115;28;19930;-50
2024/02/19 00:07:57;;;;;;;;;;;15.10;87.40;;;;;;4072412;28;19929;-52
2024/02/19 00:10:38;;;;;;;;;;;15.10;87.40;;;;;;4097680;28;20014;-50
2024/02/19 00:13:19;;;;;;;;;;;15.10;87.60;;;;;;4091512;28;19928;-49
2024/02/19 00:16:00;;;;;;;;;;;15.10;87.60;;;;;;4092517;28;20398;-50
2024/02/19 00:18:40;;;;;;;;;;;15.10;87.70;;;;;;4092314;28;19935;-49
2024/02/19 00:21:23;;;;;;;;;;;15.20;87.60;;;;;;4080239;29;19949;-49
2024/02/19 00:24:04;;;;;;;;;;;15.10;87.60;;;;;;4092161;28;19935;-51
2024/02/19 00:26:45;;;;;;;;;;;15.10;87.60;;;;;;4091643;28;19934;-62
2024/02/19 00:29:25;;;;;;;;;;;15.10;87.60;;;;;;4091333;28;19996;-62
2024/02/19 00:32:06;;;;;;;;;;;15.10;87.40;;;;;;4102077;28;19933;-62
2024/02/19 00:34:47;;;;;;;;;;;15.10;87.20;;;;;;4091331;28;19933;-63
2024/02/19 00:37:29;;;;;;;;;;;15.10;87.30;;;;;;4101713;28;19929;-62
2024/02/19 00:40:10;;;;;;;;;;;15.10;88.20;;;;;;4091915;28;19929;-63
2024/02/19 00:42:50;;;;;;;;;;;15.10;87.40;;;;;;4090731;28;19933;-61
2024/02/19 00:45:31;;;;;;;;;;;15.10;87.50;;;;;;4090740;28;19973;-63
2024/02/19 00:48:13;;;;;;;;;;;15.10;87.40;;;;;;4079661;28;20411;-62
2024/02/19 00:50:55;;;;;;;;;;;15.10;87.60;;;;;;4091760;28;19946;-62
2024/02/19 00:53:38;;;;;;;;;;;15.00;87.70;;;;;;4079616;28;20296;-62
2024/02/19 00:56:18;;;;;;;;;;;15.10;87.80;;;;;;4091105;28;19933;-61
2024/02/19 00:58:59;;;;;;;;;;;15.00;87.60;;;;;;4091527;28;19930;-63
2024/02/19 01:01:40;;;;;;;;;;;15.00;87.50;;;;;;4091293;28;20295;-62
2024/02/19 01:04:21;;;;;;;;;;;15.00;87.40;;;;;;4075676;29;19929;-62
2024/02/19 01:07:02;;;;;;;;;;;15.00;87.30;;;;;;4075349;29;19969;-61
2024/02/19 01:09:48;;;;;;;;;;;15.00;87.40;;;;;;4077981;28;20442;-61
2024/02/19 01:12:29;;;;;;;;;;;15.00;87.10;;;;;;4090725;28;19976;-62
2024/02/19 01:15:10;;;;;;;;;;;15.00;86.90;;;;;;4091164;28;19981;-62
2024/02/19 01:17:50;;;;;;;;;;;15.00;87.50;;;;;;4091162;28;19932;-62
2024/02/19 01:20:31;;;;;;;;;;;15.00;86.80;;;;;;4090979;28;19929;-63
2024/02/19 01:23:12;;;;;;;;;;;14.90;87.00;;;;;;4091142;28;20062;-63
2024/02/19 01:25:55;;;;;;;;;;;15.00;87.20;;;;;;4091659;28;20447;-51
2024/02/19 01:28:37;;;;;;;;;;;14.90;87.60;;;;;;4087770;28;19961;-52
2024/02/19 01:31:18;;;;;;;;;;;15.00;87.20;;;;;;4079129;28;19929;-49
2024/02/19 01:33:58;;;;;;;;;;;14.90;87.20;;;;;;4074881;29;19934;-51
2024/02/19 01:36:39;;;;;;;;;;;14.90;87.40;;;;;;4075540;29;19961;-51
2024/02/19 01:39:21;;;;;;;;;;;14.90;87.30;;;;;;4075414;29;20395;-51
2024/02/19 01:42:04;;;;;;;;;;;14.90;87.50;;;;;;4089752;28;19929;-51
2024/02/19 01:44:45;;;;;;;;;;;14.90;87.70;;;;;;4090411;28;19941;-51
2024/02/19 01:47:25;;;;;;;;;;;14.90;87.70;;;;;;4090294;28;19930;-52
2024/02/19 01:50:06;;;;;;;;;;;14.90;87.70;;;;;;4082562;28;20280;-52
2024/02/19 01:52:47;;;;;;;;;;;14.90;87.80;;;;;;4089689;28;20450;-51
2024/02/19 01:55:28;;;;;;;;;;;14.90;87.90;;;;;;4090648;28;19929;-51
2024/02/19 01:58:11;;;;;;;;;;;14.90;87.90;;;;;;4078674;29;19934;-53
2024/02/19 02:00:59;;;;;;;;;;;14.90;88.10;;;;;;4079233;29;19929;-48
2024/02/19 02:03:40;;;;;;;;;;;14.90;88.20;;;;;;4090254;28;19933;-53
2024/02/19 02:06:22;;;;;;;;;;;14.90;89.10;;;;;;4090726;28;19929;-51
2024/02/19 02:09:04;;;;;;;;;;;14.90;89.10;;;;;;4090396;28;19934;-49
2024/02/19 02:11:45;;;;;;;;;;;14.90;88.40;;;;;;4087551;28;19969;-51
2024/02/19 02:14:27;;;;;;;;;;;14.90;88.40;;;;;;4089751;28;19933;-50
2024/02/19 02:17:09;;;;;;;;;;;14.90;88.50;;;;;;4090175;28;20028;-50
2024/02/19 02:19:49;;;;;;;;;;;14.90;88.50;;;;;;4089687;28;20307;-49
2024/02/19 02:22:31;;;;;;;;;;;14.90;88.70;;;;;;4081057;28;19933;-48
2024/02/19 02:25:11;;;;;;;;;;;14.90;88.70;;;;;;4090421;28;19929;-54
2024/02/19 02:27:53;;;;;;;;;;;14.90;88.70;;;;;;4090043;28;19934;-51
2024/02/19 02:30:34;;;;;;;;;;;14.90;88.70;;;;;;4084963;28;20071;-53
2024/02/19 02:33:15;;;;;;;;;;;14.90;88.80;;;;;;4073298;28;19933;-52
2024/02/19 02:35:56;;;;;;;;;;;14.90;88.70;;;;;;4090911;28;19930;-49
2024/02/19 02:38:36;;;;;;;;;;;14.80;88.60;;;;;;4090445;28;19934;-49
2024/02/19 02:41:17;;;;;;;;;;;14.90;88.80;;;;;;4090417;28;19929;-48
2024/02/19 02:44:00;;;;;;;;;;;14.80;88.70;;;;;;4090501;28;19930;-49
2024/02/19 02:46:41;;;;;;;;;;;14.80;88.80;;;;;;4089357;28;19934;-50
2024/02/19 02:49:22;;;;;;;;;;;14.80;88.90;;;;;;4090180;28;19928;-62
2024/02/19 02:52:03;;;;;;;;;;;14.90;89.00;;;;;;4090022;28;19934;-62
2024/02/19 02:54:43;;;;;;;;;;;14.80;88.90;;;;;;4089181;28;19949;-63
2024/02/19 02:57:24;;;;;;;;;;;14.80;88.90;;;;;;4083535;28;20067;-62
2024/02/19 03:00:08;;;;;;;;;;;14.90;89.10;;;;;;4088620;28;19933;-63
2024/02/19 03:02:48;;;;;;;;;;;14.80;89.00;;;;;;4089304;28;19942;-50
2024/02/19 03:05:29;;;;;;;;;;;14.80;89.00;;;;;;4089830;28;19929;-49
2024/02/19 03:08:10;;;;;;;;;;;14.80;89.10;;;;;;4089730;28;20291;-50
2024/02/19 03:10:51;;;;;;;;;;;14.80;89.20;;;;;;4088758;28;20453;-49
2024/02/19 03:13:32;;;;;;;;;;;14.90;89.40;;;;;;4090507;28;19973;-50
2024/02/19 03:16:15;;;;;;;;;;;14.80;89.10;;;;;;4089026;28;19933;-49
2024/02/19 03:18:56;;;;;;;;;;;14.80;89.20;;;;;;4088820;28;19993;-48
2024/02/19 03:21:37;;;;;;;;;;;14.90;89.20;;;;;;4089405;28;20021;-48
2024/02/19 03:24:18;;;;;;;;;;;14.90;89.10;;;;;;4089353;28;19928;-49
2024/02/19 03:26:59;;;;;;;;;;;14.90;89.00;;;;;;4089211;28;19933;-49
2024/02/19 03:29:40;;;;;;;;;;;14.90;88.90;;;;;;4089281;28;19975;-49
2024/02/19 03:32:22;;;;;;;;;;;15.00;88.80;;;;;;4073657;29;19930;-62
2024/02/19 03:35:03;;;;;;;;;;;15.00;88.80;;;;;;4073605;29;20284;-63
2024/02/19 03:37:46;;;;;;;;;;;15.00;89.70;;;;;;4085729;28;19928;-62
2024/02/19 03:40:27;;;;;;;;;;;14.90;88.80;;;;;;4089453;28;20008;-62
2024/02/19 03:43:07;;;;;;;;;;;15.00;88.90;;;;;;4077421;28;20279;-62
2024/02/19 03:45:50;;;;;;;;;;;14.90;89.00;;;;;;4092157;28;19964;-62
2024/02/19 03:48:32;;;;;;;;;;;14.90;89.00;;;;;;4086983;28;20479;-63
2024/02/19 03:51:13;;;;;;;;;;;15.00;89.10;;;;;;4093226;28;19973;-63
2024/02/19 03:53:54;;;;;;;;;;;15.00;89.00;;;;;;4092960;28;19929;-62
2024/02/19 03:56:34;;;;;;;;;;;15.00;89.00;;;;;;4093368;28;19985;-63
2024/02/19 03:59:17;;;;;;;;;;;15.10;89.10;;;;;;4091694;28;19932;-62
2024/02/19 04:01:57;;;;;;;;;;;15.10;89.00;;;;;;4092318;28;19984;-63
2024/02/19 04:04:39;;;;;;;;;;;15.20;88.70;;;;;;4092214;28;19929;-62
2024/02/19 04:07:20;;;;;;;;;;;15.30;88.40;;;;;;4092795;28;19933;-62
2024/02/19 04:10:00;;;;;;;;;;;15.40;88.20;;;;;;4092692;28;19929;-63
2024/02/19 04:12:41;;;;;;;;;;;15.40;88.00;;;;;;4092391;28;20013;-63
2024/02/19 04:15:22;;;;;;;;;;;15.40;87.90;;;;;;4092041;28;19930;-63
2024/02/19 04:18:02;;;;;;;;;;;15.40;88.00;;;;;;4088565;28;19933;-63
2024/02/19 04:20:44;;;;;;;;;;;15.50;87.90;;;;;;4091407;28;19950;-62
2024/02/19 04:23:25;;;;;;;;;;;15.50;87.70;;;;;;4091701;28;19933;-62
2024/02/19 04:26:06;;;;;;;;;;;15.60;87.50;;;;;;4091775;28;19929;-62
2024/02/19 04:28:46;;;;;;;;;;;15.60;87.40;;;;;;4075772;29;19933;-62
2024/02/19 04:31:27;;;;;;;;;;;15.60;87.30;;;;;;4076211;29;19930;-61
2024/02/19 04:34:08;;;;;;;;;;;15.60;87.30;;;;;;4079292;28;19942;-62
2024/02/19 04:36:50;;;;;;;;;;;15.60;87.30;;;;;;4092242;28;19981;-62
2024/02/19 04:39:33;;;;;;;;;;;15.60;87.30;;;;;;4091952;28;19973;-63
2024/02/19 04:42:14;;;;;;;;;;;15.60;87.50;;;;;;4092430;28;19929;-62
2024/02/19 04:44:56;;;;;;;;;;;15.60;87.50;;;;;;4090036;28;19960;-63
2024/02/19 04:47:36;;;;;;;;;;;15.60;87.40;;;;;;4079513;29;20450;-62
2024/02/19 04:50:17;;;;;;;;;;;15.60;87.40;;;;;;4091819;28;20042;-63
2024/02/19 04:53:00;;;;;;;;;;;15.60;87.30;;;;;;4079916;28;19934;-62
2024/02/19 04:55:40;;;;;;;;;;;15.60;87.40;;;;;;4091583;28;20403;-62
2024/02/19 04:58:21;;;;;;;;;;;15.60;87.50;;;;;;4074352;28;19950;-62
2024/02/19 05:01:03;;;;;;;;;;;15.60;87.50;;;;;;4091431;28;19986;-62
2024/02/19 05:03:44;;;;;;;;;;;15.70;87.40;;;;;;4091118;28;20299;-62
2024/02/19 05:06:25;;;;;;;;;;;15.60;87.30;;;;;;4091644;28;20008;-62
2024/02/19 05:09:07;;;;;;;;;;;15.70;87.30;;;;;;4075779;29;19969;-62
2024/02/19 05:11:48;;;;;;;;;;;15.70;88.10;;;;;;4075668;29;19929;-62
2024/02/19 05:14:29;;;;;;;;;;;15.80;87.10;;;;;;4075648;29;19934;-62
2024/02/19 05:17:10;;;;;;;;;;;15.80;86.80;;;;;;4080307;29;19929;-62
2024/02/19 05:19:51;;;;;;;;;;;15.80;86.70;;;;;;4091382;28;19932;-62
2024/02/19 05:22:32;;;;;;;;;;;15.80;86.70;;;;;;4091383;28;19933;-63
2024/02/19 05:25:15;;;;;;;;;;;15.80;86.80;;;;;;4090517;28;19976;-63
2024/02/19 05:27:58;;;;;;;;;;;15.90;87.60;;;;;;4091009;28;19929;-63
2024/02/19 05:30:38;;;;;;;;;;;15.90;86.60;;;;;;4090852;28;19929;-63
2024/02/19 05:33:19;;;;;;;;;;;15.90;86.50;;;;;;4090996;28;19932;-62
2024/02/19 05:36:00;;;;;;;;;;;15.90;86.50;;;;;;4091399;28;20058;-63
2024/02/19 05:38:41;;;;;;;;;;;15.90;86.40;;;;;;4084725;28;19995;-63
2024/02/19 05:41:23;;;;;;;;;;;16.00;86.30;;;;;;4091016;28;20065;-62
2024/02/19 05:44:04;;;;;;;;;;;16.00;86.20;;;;;;4090936;28;19930;-62
2024/02/19 05:46:45;;;;;;;;;;;16.00;86.20;;;;;;4090911;28;20019;-63
2024/02/19 05:49:26;;;;;;;;;;;16.00;86.20;;;;;;4090812;28;19934;-63
2024/02/19 05:52:07;;;;;;;;;;;15.90;86.20;;;;;;4090745;28;19929;-62
2024/02/19 05:54:47;;;;;;;;;;;15.90;86.30;;;;;;4090175;28;19934;-62
2024/02/19 05:57:29;;;;;;;;;;;15.90;86.50;;;;;;4078380;28;19929;-52
2024/02/19 06:00:13;;;;;;;;;;;15.80;86.60;;;;;;4090467;28;19993;-51
2024/02/19 06:02:54;;;;;;;;;;;15.80;86.80;;;;;;4090723;28;20003;-53
2024/02/19 06:05:36;;;;;;;;;;;15.90;86.90;;;;;;4090791;28;19930;-52
2024/02/19 06:08:17;;;;;;;;;;;15.90;86.80;;;;;;4089784;28;20425;-51
2024/02/19 06:10:59;;;;;;;;;;;15.90;86.60;;;;;;4068019;29;19933;-52
2024/02/19 06:13:41;;;;;;;;;;;15.90;86.50;;;;;;4080023;28;19937;-51
2024/02/19 06:16:22;;;;;;;;;;;15.90;87.30;;;;;;4090231;28;20351;-52
2024/02/19 06:19:03;;;;;;;;;;;15.90;86.60;;;;;;4074569;29;19934;-48
2024/02/19 06:21:44;;;;;;;;;;;15.90;86.60;;;;;;4076413;28;19934;-48
2024/02/19 06:24:25;;;;;;;;;;;15.90;86.60;;;;;;4090096;28;19930;-48
2024/02/19 06:27:06;;;;;;;;;;;15.90;86.60;;;;;;4090097;28;19933;-48
2024/02/19 06:29:48;;;;;;;;;;;15.80;86.60;;;;;;4078161;28;19929;-60
2024/02/19 06:32:29;;;;;;;;;;;15.90;86.80;;;;;;4090290;28;20005;-60
2024/02/19 06:35:10;;;;;;;;;;;15.90;86.80;;;;;;4090432;28;19938;-60
2024/02/19 06:37:51;;;;;;;;;;;15.90;86.70;;;;;;4089716;28;20012;-60
2024/02/19 06:40:31;;;;;;;;;;;15.90;86.70;;;;;;4090310;28;19929;-60
2024/02/19 06:43:12;;;;;;;;;;;16.00;86.60;;;;;;4089897;28;20050;-63
2024/02/19 06:45:54;;;;;;;;;;;16.00;86.40;;;;;;4090013;28;19933;-63
2024/02/19 06:48:35;;;;;;;;;;;16.00;86.40;;;;;;4090120;28;20062;-63
2024/02/19 06:51:15;;;;;;;;;;;16.10;86.40;;;;;;4090528;28;20693;-62
2024/02/19 06:53:56;;;;;;;;;;;16.10;86.50;;;;;;4089752;28;19929;-63
2024/02/19 06:56:37;;;;;;;;;;;16.10;86.40;;;;;;4066609;28;19933;-50
2024/02/19 06:59:18;;;;;;;;;;;16.20;86.20;;;;;;4074347;28;19933;-63
2024/02/19 07:02:00;;;;;;;;;;;16.30;85.90;;;;;;4089451;28;19928;-62
2024/02/19 07:04:45;;;;;;;;;;;16.30;85.70;;;;;;4078024;28;19981;-62
2024/02/19 07:07:26;;;;;;;;;;;16.30;85.60;;;;;;4089885;28;19933;-62
2024/02/19 07:10:08;;;;;;;;;;;16.20;85.60;;;;;;4088457;28;19933;-52
2024/02/19 07:12:49;;;;;;;;;;;16.20;85.60;;;;;;4089232;28;19933;-63
2024/02/19 07:15:29;;;;;;;;;;;16.20;85.70;;;;;;4100171;28;19929;-62
2024/02/19 07:18:12;;;;;;;;;;;16.10;85.90;;;;;;4089268;28;19934;-52
2024/02/19 07:20:53;;;;;;;;;;;16.10;86.00;;;;;;4088599;28;19949;-62
2024/02/19 07:23:34;;;;;;;;;;;16.10;86.30;;;;;;4089305;28;20070;-62
2024/02/19 07:26:14;;;;;;;;;;;16.00;86.40;;;;;;4089031;28;19933;-62
2024/02/19 07:28:55;;;;;;;;;;;16.00;86.60;;;;;;4089912;28;19929;-62
2024/02/19 07:31:36;;;;;;;;;;;15.90;86.80;;;;;;4089362;28;19933;-62
2024/02/19 07:34:18;;;;;;;;;;;15.90;87.10;;;;;;4089785;28;19944;-62
2024/02/19 07:36:58;;;;;;;;;;;15.90;87.10;;;;;;4089295;28;19973;-62
2024/02/19 07:39:41;;;;;;;;;;;16.00;87.80;;;;;;4077435;28;20054;-63
2024/02/19 07:42:22;;;;;;;;;;;16.00;86.70;;;;;;4089334;28;19937;-62
2024/02/19 07:45:03;;;;;;;;;;;16.10;86.40;;;;;;4089541;28;19930;-63
2024/02/19 07:47:44;;;;;;;;;;;16.10;86.00;;;;;;4089450;28;19933;-62
2024/02/19 07:50:26;;;;;;;;;;;16.10;85.50;;;;;;4089419;28;20402;-63
2024/02/19 07:53:07;;;;;;;;;;;16.20;85.20;;;;;;4089679;28;19933;-49
2024/02/19 07:55:47;;;;;;;;;;;16.10;85.60;;;;;;4069899;28;19933;-49
2024/02/19 07:58:29;;;;;;;;;;;16.20;84.50;;;;;;4082236;28;19929;-49
2024/02/19 08:01:09;;;;;;;;;;;16.10;84.30;;;;;;4089461;28;19933;-49
2024/02/19 08:03:49;;;;;;;;;;;16.10;84.10;;;;;;4089156;28;20289;-48
2024/02/19 08:06:35;;;;;;;;;;;16.20;84.70;;;;;;4076565;29;20383;-48
2024/02/19 08:09:15;;;;;;;;;;;16.20;83.30;;;;;;4077363;28;20382;-49
2024/02/19 08:11:57;;;;;;;;;;;16.30;82.90;;;;;;4088470;28;19934;-48
2024/02/19 08:14:38;;;;;;;;;;;16.30;82.30;;;;;;4089131;28;19957;-47
2024/02/19 08:17:19;;;;;;;;;;;16.20;81.90;;;;;;4089202;28;19933;-49
2024/02/19 08:20:00;;;;;;;;;;;16.20;82.80;;;;;;4087960;28;19930;-51
2024/02/19 08:22:42;;;;;;;;;;;16.20;82.00;;;;;;4088989;28;20392;-50
2024/02/19 08:25:26;;;;;;;;;;;16.30;82.00;;;;;;4097274;28;19933;-49
2024/02/19 08:28:07;;;;;;;;;;;16.30;82.70;;;;;;4086190;28;19945;-51
2024/02/19 08:30:47;;;;;;;;;;;16.30;81.50;;;;;;4083858;28;19933;-51
2024/02/19 08:33:28;;;;;;;;;;;16.30;81.20;;;;;;4089405;28;20061;-47
2024/02/19 08:36:09;;;;;;;;;;;16.20;81.10;;;;;;4091459;28;20331;-51
2024/02/19 08:38:52;;;;;;;;;;;16.20;81.30;;;;;;4091850;28;19929;-52
2024/02/19 08:41:33;;;;;;;;;;;16.20;81.40;;;;;;4091501;28;19933;-48
2024/02/19 08:44:14;;;;;;;;;;;16.10;82.80;;;;;;4091347;28;19972;-48
2024/02/19 08:46:55;;;;;;;;;;;16.10;82.20;;;;;;4076012;29;19934;-47
2024/02/19 08:49:37;;;;;;;;;;;16.10;82.20;;;;;;4084586;28;19929;-62
2024/02/19 08:52:18;;;;;;;;;;;16.10;82.30;;;;;;4091650;29;19933;-62
2024/02/19 08:55:00;;;;;;;;;;;16.00;82.30;;;;;;4081755;28;19930;-62
2024/02/19 08:57:40;;;;;;;;;;;16.00;82.20;;;;;;4089810;28;20591;-61
2024/02/19 09:00:21;;;;;;;;;;;16.00;83.00;;;;;;4090878;28;19929;-47
2024/02/19 09:03:06;;;;;;;;;;;16.00;82.80;;;;;;4078571;28;19933;-48
2024/02/19 09:05:47;;;;;;;;;;;16.00;81.80;;;;;;4090816;28;20385;-51
2024/02/19 09:08:28;;;;;;;;;;;16.00;82.50;;;;;;4091018;28;19934;-60
2024/02/19 09:11:10;;;;;;;;;;;16.00;81.40;;;;;;4091060;28;20347;-52
2024/02/19 09:13:50;;;;;;;;;;;16.10;81.30;;;;;;4091611;28;19932;-61
2024/02/19 09:16:32;;;;;;;;;;;16.20;81.80;;;;;;4077177;29;19928;-60
2024/02/19 09:19:14;;;;;;;;;;;16.30;80.50;;;;;;4090472;28;19930;-61
2024/02/19 09:21:54;;;;;;;;;;;16.30;80.10;;;;;;4076617;28;19937;-47
2024/02/19 09:24:35;;;;;;;;;;;16.30;80.80;;;;;;4089423;28;19930;-50
2024/02/19 09:27:18;;;;;;;;;;;16.30;79.80;;;;;;4090178;28;20390;-51
2024/02/19 09:29:59;;;;;;;;;;;16.30;79.80;;;;;;4090242;28;19929;-47
2024/02/19 09:32:39;;;;;;;;;;;16.40;80.60;;;;;;4090481;28;19988;-50
2024/02/19 09:35:20;;;;;;;;;;;16.40;79.50;;;;;;4089940;28;19977;-48
2024/02/19 09:38:02;;;;;;;;;;;16.40;79.30;;;;;;4091578;28;20387;-51
2024/02/19 09:40:47;;;;;;;;;;;16.50;79.10;;;;;;4090849;28;19933;-49
2024/02/19 09:43:29;;;;;;;;;;;16.50;79.00;;;;;;4087129;28;19933;-50
2024/02/19 09:46:15;;;;;;;;;;;16.40;79.00;;;;;;4074747;29;19945;-60
2024/02/19 09:48:57;;;;;;;;;;;16.40;80.00;;;;;;4077434;28;19930;-59
2024/02/19 09:51:41;;;;;;;;;;;16.40;79.20;;;;;;4089817;28;19945;-60
2024/02/19 09:54:24;;;;;;;;;;;16.30;80.10;;;;;;4093695;28;20291;-60
2024/02/19 09:57:09;;;;;;;;;;;16.30;79.40;;;;;;4105282;28;19929;-59
2024/02/19 09:59:51;;;;;;;;;;;16.30;79.70;;;;;;4106661;28;20606;-51
2024/02/19 10:02:32;;;;;;;;;;;16.20;79.90;;;;;;4101584;28;19929;-49
2024/02/19 10:05:12;;;;;;;;;;;16.20;80.20;;;;;;4094801;28;19977;-52
2024/02/19 10:07:58;;;;;;;;;;;16.10;80.30;;;;;;4074888;28;19934;-52
2024/02/19 10:10:41;;;;;;;;;;;16.10;80.40;;;;;;4083214;28;19949;-53
2024/02/19 10:13:24;;;;;;;;;;;16.10;80.60;;;;;;4089692;28;19929;-51
2024/02/19 10:16:08;;;;;;;;;;;16.00;80.80;;;;;;4074248;29;19930;-50
2024/02/19 10:18:52;;;;;;;;;;;16.00;80.80;;;;;;4074702;29;20497;-51
2024/02/19 10:21:33;;;;;;;;;;;16.00;81.00;;;;;;4063116;29;19945;-50
2024/02/19 10:24:13;;;;;;;;;;;16.00;81.10;;;;;;4090317;29;19988;-49
2024/02/19 10:26:54;;;;;;;;;;;16.00;81.20;;;;;;4089943;28;19929;-49
2024/02/19 10:29:34;;;;;;;;;;;16.00;81.30;;;;;;4089657;28;19933;-62
2024/02/19 10:32:16;;;;;;;;;;;15.90;81.30;;;;;;4090388;29;19929;-64
2024/02/19 10:34:57;;;;;;;;;;;15.90;81.50;;;;;;4091525;28;20081;-61
2024/02/19 10:37:38;;;;;;;;;;;15.90;81.60;;;;;;4081935;28;19929;-61
2024/02/19 10:40:19;;;;;;;;;;;15.90;81.60;;;;;;4090168;28;20016;-47
2024/02/19 10:43:01;;;;;;;;;;;15.90;81.80;;;;;;4074521;28;19933;-47
2024/02/19 10:45:41;;;;;;;;;;;15.80;81.70;;;;;;4089386;28;19934;-48
2024/02/19 10:48:23;;;;;;;;;;;15.80;81.80;;;;;;4089998;28;19982;-48
2024/02/19 10:51:04;;;;;;;;;;;15.80;82.70;;;;;;4090035;28;19989;-47
2024/02/19 10:53:45;;;;;;;;;;;15.80;81.90;;;;;;4089338;28;20107;-48
2024/02/19 10:56:33;;;;;;;;;;;15.70;82.00;;;;;;4059256;28;19938;-51
2024/02/19 10:59:14;;;;;;;;;;;15.70;82.10;;;;;;4074260;29;20295;-48
2024/02/19 11:02:07;;;;;;;;;;;15.70;82.20;;;;;;4074611;29;20346;-61
2024/02/19 11:04:51;;;;;;;;;;;15.60;82.30;;;;;;4073583;28;19930;-62
2024/02/19 11:07:33;;;;;;;;;;;15.60;82.40;;;;;;4080035;28;19937;-62
2024/02/19 11:10:14;;;;;;;;;;;15.60;82.60;;;;;;4090176;28;20016;-62
2024/02/19 11:13:04;;;;;;;;;;;15.50;82.70;;;;;;4073423;29;19930;-62
2024/02/19 11:15:46;;;;;;;;;;;15.50;82.90;;;;;;4073515;29;19930;-62
2024/02/19 11:18:29;;;;;;;;;;;15.50;83.00;;;;;;4073425;29;19949;-62
2024/02/19 11:21:12;;;;;;;;;;;15.50;83.30;;;;;;4074529;28;19933;-62
2024/02/19 11:23:52;;;;;;;;;;;15.40;83.40;;;;;;4077290;28;20062;-62
2024/02/19 11:26:33;;;;;;;;;;;15.40;83.50;;;;;;4075982;28;19933;-62
2024/02/19 11:29:14;;;;;;;;;;;15.40;83.70;;;;;;4073521;29;19930;-62
2024/02/19 11:31:59;;;;;;;;;;;15.40;84.70;;;;;;4073936;29;19988;-62
2024/02/19 11:34:40;;;;;;;;;;;15.40;84.00;;;;;;4086424;28;20062;-48
2024/02/19 11:37:38;;;;;;;;;;;15.30;84.10;;;;;;4083367;28;19945;-48
2024/02/19 11:40:21;;;;;;;;;;;15.30;85.10;;;;;;4087476;28;19934;-47
2024/02/19 11:43:02;;;;;;;;;;;15.30;84.40;;;;;;4088755;28;19933;-48
2024/02/19 11:45:43;;;;;;;;;;;15.30;84.50;;;;;;4089078;28;19977;-51
2024/02/19 11:48:24;;;;;;;;;;;15.30;84.60;;;;;;4094831;28;20317;-48
2024/02/19 11:51:06;;;;;;;;;;;15.30;84.70;;;;;;4070156;28;20299;-52
2024/02/19 11:53:48;;;;;;;;;;;15.20;84.80;;;;;;4078044;28;20707;-47
2024/02/19 11:56:40;;;;;;;;;;;15.20;84.90;;;;;;4087225;28;20402;-48
2024/02/19 11:59:21;;;;;;;;;;;15.20;84.90;;;;;;4086739;28;19933;-49
2024/02/19 12:02:04;;;;;;;;;;;15.20;85.90;;;;;;4089416;28;20576;-47
2024/02/19 12:04:50;;;;;;;;;;;15.20;85.20;;;;;;4089268;28;20840;-47
2024/02/19 12:07:33;;;;;;;;;;;15.20;85.20;;;;;;4092584;28;19934;-64
2024/02/19 12:10:15;;;;;;;;;;;15.20;85.20;;;;;;4092482;28;19986;-62
2024/02/19 12:12:58;;;;;;;;;;;15.20;85.80;;;;;;4091822;28;20395;-63
2024/02/19 12:15:48;;;;;;;;;;;15.20;86.20;;;;;;4091366;28;20058;-61
2024/02/19 12:18:29;;;;;;;;;;;15.20;86.70;;;;;;4087648;28;19930;-62
2024/02/19 12:21:10;;;;;;;;;;;15.30;88.10;;;;;;4076519;29;19938;-62
2024/02/19 12:23:52;;;;;;;;;;;15.40;87.50;;;;;;4076190;29;20348;-62
2024/02/19 12:26:34;;;;;;;;;;;15.40;87.10;;;;;;4078036;28;19933;-59
2024/02/19 12:29:17;;;;;;;;;;;15.50;87.10;;;;;;4091624;28;19929;-48
2024/02/19 12:31:57;;;;;;;;;;;15.50;87.00;;;;;;4071832;28;19929;-48
2024/02/19 12:34:39;;;;;;;;;;;15.50;86.90;;;;;;4092362;28;19949;-60
2024/02/19 12:37:20;;;;;;;;;;;15.50;86.90;;;;;;4092049;28;19930;-53
2024/02/19 12:40:02;;;;;;;;;;;15.50;86.80;;;;;;4102150;28;19932;-57
2024/02/19 12:42:42;;;;;;;;;;;15.50;86.80;;;;;;4091578;28;19933;-58
2024/02/19 12:45:24;;;;;;;;;;;15.50;86.80;;;;;;4091504;28;20047;-58
2024/02/19 12:48:06;;;;;;;;;;;15.50;86.90;;;;;;4092071;28;20030;-56
2024/02/19 12:50:47;;;;;;;;;;;15.60;86.90;;;;;;4091892;28;19973;-59
2024/02/19 12:53:27;;;;;;;;;;;15.50;86.90;;;;;;4081928;28;20690;-58
2024/02/19 12:56:09;;;;;;;;;;;15.50;86.90;;;;;;4088169;28;20346;-56
2024/02/19 12:58:49;;;;;;;;;;;15.60;87.00;;;;;;4095967;28;19933;-57
2024/02/19 13:01:33;;;;;;;;;;;15.60;87.00;;;;;;4102085;28;19929;-49
2024/02/19 13:04:14;;;;;;;;;;;15.60;86.90;;;;;;4091915;28;19930;-61
2024/02/19 13:06:55;;;;;;;;;;;15.70;86.90;;;;;;4091050;28;19957;-60
2024/02/19 13:09:37;;;;;;;;;;;15.70;87.60;;;;;;4091078;28;19997;-60
2024/02/19 13:12:17;;;;;;;;;;;15.70;86.60;;;;;;4078377;28;20024;-59
2024/02/19 13:14:59;;;;;;;;;;;15.80;86.60;;;;;;4084825;28;19929;-59
2024/02/19 13:17:44;;;;;;;;;;;15.80;86.60;;;;;;4090116;28;19929;-56
2024/02/19 13:20:25;;;;;;;;;;;15.80;86.60;;;;;;4094366;28;20054;-56
2024/02/19 13:23:06;;;;;;;;;;;15.80;86.70;;;;;;4106635;28;19933;-57
2024/02/19 13:25:47;;;;;;;;;;;15.90;86.50;;;;;;4080924;28;20123;-57
2024/02/19 13:28:29;;;;;;;;;;;16.00;86.20;;;;;;4089494;28;19961;-50
2024/02/19 13:31:09;;;;;;;;;;;16.00;85.90;;;;;;4090529;28;20012;-51
2024/02/19 13:33:51;;;;;;;;;;;16.10;85.80;;;;;;4091225;28;19972;-48
2024/02/19 13:36:32;;;;;;;;;;;16.00;85.60;;;;;;4087054;28;19969;-48
2024/02/19 13:39:13;;;;;;;;;;;16.00;85.50;;;;;;4090364;28;19933;-48
2024/02/19 13:41:54;;;;;;;;;;;16.00;85.50;;;;;;4090293;28;19929;-47
2024/02/19 13:44:35;;;;;;;;;;;16.00;85.60;;;;;;4090468;28;20298;-48
2024/02/19 13:47:16;;;;;;;;;;;16.10;85.70;;;;;;4078857;28;19933;-49
2024/02/19 13:49:58;;;;;;;;;;;16.00;86.50;;;;;;4074631;29;20098;-56
2024/02/19 13:52:40;;;;;;;;;;;16.00;85.60;;;;;;4085157;28;20034;-50
2024/02/19 13:55:21;;;;;;;;;;;16.00;85.50;;;;;;4085370;28;19972;-47
2024/02/19 13:58:02;;;;;;;;;;;16.00;85.50;;;;;;4075224;29;20750;-57
2024/02/19 14:00:42;;;;;;;;;;;16.00;85.50;;;;;;4074061;28;19974;-57
2024/02/19 14:03:23;;;;;;;;;;;16.00;85.60;;;;;;4087709;28;19933;-48
2024/02/19 14:06:06;;;;;;;;;;;16.00;86.70;;;;;;4090704;28;20272;-49
2024/02/19 14:08:46;;;;;;;;;;;16.00;85.80;;;;;;4090610;28;19932;-49
2024/02/19 14:11:27;;;;;;;;;;;16.00;85.60;;;;;;4091339;28;20291;-49
2024/02/19 14:14:08;;;;;;;;;;;16.10;85.70;;;;;;4078766;28;19934;-51
2024/02/19 14:16:49;;;;;;;;;;;16.10;86.50;;;;;;4078869;28;19929;-50
2024/02/19 14:19:29;;;;;;;;;;;16.10;85.70;;;;;;4089867;28;19945;-49
2024/02/19 14:22:12;;;;;;;;;;;16.10;85.80;;;;;;4090472;28;20341;-52
2024/02/19 14:24:53;;;;;;;;;;;16.10;86.00;;;;;;4090702;28;19930;-58
2024/02/19 14:27:34;;;;;;;;;;;16.00;86.00;;;;;;4074846;29;19985;-58
2024/02/19 14:30:15;;;;;;;;;;;16.00;86.20;;;;;;4085915;28;20061;-48
2024/02/19 14:32:56;;;;;;;;;;;16.00;86.40;;;;;;4089048;28;19929;-48
2024/02/19 14:35:36;;;;;;;;;;;16.00;86.50;;;;;;4089439;28;19945;-49
2024/02/19 14:38:19;;;;;;;;;;;15.90;86.70;;;;;;4094764;28;19929;-50
2024/02/19 14:41:00;;;;;;;;;;;15.90;86.80;;;;;;4089664;28;20668;-58
2024/02/19 14:43:40;;;;;;;;;;;15.90;87.00;;;;;;4090248;28;19969;-50
2024/02/19 14:46:21;;;;;;;;;;;15.90;87.10;;;;;;4067039;29;20353;-51
2024/02/19 14:49:04;;;;;;;;;;;15.80;87.10;;;;;;4090208;28;20488;-52
2024/02/19 14:51:45;;;;;;;;;;;15.80;87.30;;;;;;4074039;29;20061;-49
2024/02/19 14:54:27;;;;;;;;;;;15.70;87.20;;;;;;4074010;29;20375;-48
2024/02/19 14:57:08;;;;;;;;;;;15.70;87.50;;;;;;4074252;29;19950;-51
2024/02/19 14:59:50;;;;;;;;;;;15.70;87.70;;;;;;4084161;28;19930;-51
2024/02/19 15:02:31;;;;;;;;;;;15.60;87.90;;;;;;4089806;28;20303;-51
2024/02/19 15:05:12;;;;;;;;;;;15.60;88.90;;;;;;4091068;28;19929;-49
2024/02/19 15:07:54;;;;;;;;;;;15.60;88.10;;;;;;4097568;28;19933;-48
2024/02/19 15:10:36;;;;;;;;;;;15.60;88.20;;;;;;4085551;28;19929;-48
2024/02/19 15:13:17;;;;;;;;;;;15.60;88.30;;;;;;4090163;28;19981;-50
2024/02/19 15:15:57;;;;;;;;;;;15.50;88.40;;;;;;4088246;28;19929;-52
2024/02/19 15:18:39;;;;;;;;;;;15.50;88.40;;;;;;4024297;29;19934;-50
2024/02/19 15:21:20;;;;;;;;;;;15.50;89.40;;;;;;4074274;29;19941;-48
2024/02/19 15:24:03;;;;;;;;;;;15.50;88.80;;;;;;4073904;29;20701;-49
2024/02/19 15:26:45;;;;;;;;;;;15.50;88.90;;;;;;4042550;29;20960;-57
2024/02/19 15:29:26;;;;;;;;;;;15.60;88.90;;;;;;4074274;29;19930;-58
2024/02/19 15:32:09;;;;;;;;;;;15.60;88.70;;;;;;4091318;28;19964;-58
2024/02/19 15:34:50;;;;;;;;;;;15.60;88.70;;;;;;4089711;28;20422;-57
2024/02/19 15:37:31;;;;;;;;;;;15.60;88.70;;;;;;4089541;28;20407;-58
2024/02/19 15:40:13;;;;;;;;;;;15.60;88.70;;;;;;4090451;28;19933;-58